sensor_id;sensor_type;location;lat;lon;timestamp;P1;durP1;ratioP1;P2;durP2;ratioP2
12171;SDS011;6149;52.418;13.668;2022-07-12T00:01:57;3.77;;;2.00;;
12171;SDS011;6149;52.418;13.668;2022-07-12T00:04:24;2.47;;;1.90;;
12171;SDS011;6149;52.418;13.668;2022-07-12T00:06:50;2.20;;;1.77;;
12171;SDS011;6149;52.418;13.668;2022-07-12T00:09:17;2.10;;;1.90;;
12171;SDS011;6149;52.418;13.668;2022-07-12T00:11:44;3.87;;;2.00;;
12171;SDS011;6149;52.418;13.668;2022-07-12T00:14:11;3.37;;;2.07;;
12171;SDS011;6149;52.418;13.668;2022-07-12T00:16:40;4.13;;;2.10;;
12171;SDS011;6149;52.418;13.668;2022-07-12T00:19:07;1.97;;;1.73;;
12171;SDS011;6149;52.418;13.668;2022-07-12T00:21:34;3.57;;;1.80;;
12171;SDS011;6149;52.418;13.668;2022-07-12T00:24:00;2.00;;;1.77;;
12171;SDS011;6149;52.418;13.668;2022-07-12T00:26:27;3.20;;;2.03;;
12171;SDS011;6149;52.418;13.668;2022-07-12T00:28:54;4.53;;;1.70;;
12171;SDS011;6149;52.418;13.668;2022-07-12T00:31:21;6.33;;;2.30;;
12171;SDS011;6149;52.418;13.668;2022-07-12T00:33:49;2.37;;;2.07;;
12171;SDS011;6149;52.418;13.668;2022-07-12T00:36:17;2.43;;;1.77;;
12171;SDS011;6149;52.418;13.668;2022-07-12T00:38:45;2.30;;;1.90;;
12171;SDS011;6149;52.418;13.668;2022-07-12T00:41:11;2.67;;;1.80;;
12171;SDS011;6149;52.418;13.668;2022-07-12T00:43:38;4.07;;;2.00;;
12171;SDS011;6149;52.418;13.668;2022-07-12T00:46:05;2.10;;;1.50;;
12171;SDS011;6149;52.418;13.668;2022-07-12T00:48:32;1.87;;;1.60;;
12171;SDS011;6149;52.418;13.668;2022-07-12T00:51:01;2.80;;;1.70;;
12171;SDS011;6149;52.418;13.668;2022-07-12T00:53:27;2.20;;;2.00;;
12171;SDS011;6149;52.418;13.668;2022-07-12T00:55:55;2.63;;;1.47;;
12171;SDS011;6149;52.418;13.668;2022-07-12T00:58:23;2.97;;;1.80;;
12171;SDS011;6149;52.418;13.668;2022-07-12T01:00:50;5.27;;;1.73;;
12171;SDS011;6149;52.418;13.668;2022-07-12T01:03:17;6.17;;;2.10;;
12171;SDS011;6149;52.418;13.668;2022-07-12T01:05:45;3.23;;;2.13;;
12171;SDS011;6149;52.418;13.668;2022-07-12T01:08:14;2.80;;;2.00;;
12171;SDS011;6149;52.418;13.668;2022-07-12T01:10:42;4.53;;;2.03;;
12171;SDS011;6149;52.418;13.668;2022-07-12T01:13:09;2.63;;;2.10;;
12171;SDS011;6149;52.418;13.668;2022-07-12T01:15:36;2.30;;;1.60;;
12171;SDS011;6149;52.418;13.668;2022-07-12T01:18:03;2.73;;;1.83;;
12171;SDS011;6149;52.418;13.668;2022-07-12T01:20:31;4.07;;;2.30;;
12171;SDS011;6149;52.418;13.668;2022-07-12T01:22:59;2.63;;;1.80;;
12171;SDS011;6149;52.418;13.668;2022-07-12T01:25:27;2.10;;;1.90;;
12171;SDS011;6149;52.418;13.668;2022-07-12T01:27:54;2.70;;;1.90;;
12171;SDS011;6149;52.418;13.668;2022-07-12T01:30:21;2.43;;;1.93;;
12171;SDS011;6149;52.418;13.668;2022-07-12T01:32:48;2.77;;;2.17;;
12171;SDS011;6149;52.418;13.668;2022-07-12T01:35:16;2.50;;;2.07;;
12171;SDS011;6149;52.418;13.668;2022-07-12T01:37:44;3.27;;;2.13;;
12171;SDS011;6149;52.418;13.668;2022-07-12T01:40:13;2.90;;;2.33;;
12171;SDS011;6149;52.418;13.668;2022-07-12T01:42:41;3.03;;;2.20;;
12171;SDS011;6149;52.418;13.668;2022-07-12T01:45:10;2.27;;;2.07;;
12171;SDS011;6149;52.418;13.668;2022-07-12T01:47:37;3.30;;;2.20;;
12171;SDS011;6149;52.418;13.668;2022-07-12T01:50:05;4.73;;;2.53;;
12171;SDS011;6149;52.418;13.668;2022-07-12T01:52:34;3.17;;;2.10;;
12171;SDS011;6149;52.418;13.668;2022-07-12T01:55:02;2.43;;;2.23;;
12171;SDS011;6149;52.418;13.668;2022-07-12T01:57:30;3.77;;;2.50;;
12171;SDS011;6149;52.418;13.668;2022-07-12T02:00:00;3.57;;;2.27;;
12171;SDS011;6149;52.418;13.668;2022-07-12T02:02:27;2.87;;;2.43;;
12171;SDS011;6149;52.418;13.668;2022-07-12T02:04:55;2.73;;;2.00;;
12171;SDS011;6149;52.418;13.668;2022-07-12T02:07:23;3.27;;;2.50;;
12171;SDS011;6149;52.418;13.668;2022-07-12T02:09:50;2.43;;;2.00;;
12171;SDS011;6149;52.418;13.668;2022-07-12T02:12:17;2.33;;;2.13;;
12171;SDS011;6149;52.418;13.668;2022-07-12T02:14:45;3.93;;;2.30;;
12171;SDS011;6149;52.418;13.668;2022-07-12T02:17:12;4.27;;;2.40;;
12171;SDS011;6149;52.418;13.668;2022-07-12T02:19:38;2.30;;;2.07;;
12171;SDS011;6149;52.418;13.668;2022-07-12T02:22:05;3.97;;;2.30;;
12171;SDS011;6149;52.418;13.668;2022-07-12T02:24:32;2.90;;;2.23;;
12171;SDS011;6149;52.418;13.668;2022-07-12T02:26:59;2.70;;;2.10;;
12171;SDS011;6149;52.418;13.668;2022-07-12T02:29:25;3.13;;;2.10;;
12171;SDS011;6149;52.418;13.668;2022-07-12T02:31:54;2.60;;;2.20;;
12171;SDS011;6149;52.418;13.668;2022-07-12T02:34:20;6.67;;;2.97;;
12171;SDS011;6149;52.418;13.668;2022-07-12T02:36:47;3.80;;;2.57;;
12171;SDS011;6149;52.418;13.668;2022-07-12T02:39:13;4.23;;;2.30;;
12171;SDS011;6149;52.418;13.668;2022-07-12T02:41:40;3.37;;;2.40;;
12171;SDS011;6149;52.418;13.668;2022-07-12T02:44:07;3.07;;;2.07;;
12171;SDS011;6149;52.418;13.668;2022-07-12T02:46:34;2.83;;;2.20;;
12171;SDS011;6149;52.418;13.668;2022-07-12T02:49:02;2.33;;;2.13;;
12171;SDS011;6149;52.418;13.668;2022-07-12T02:51:29;3.40;;;2.13;;
12171;SDS011;6149;52.418;13.668;2022-07-12T02:53:55;2.50;;;2.10;;
12171;SDS011;6149;52.418;13.668;2022-07-12T02:56:23;3.50;;;2.23;;
12171;SDS011;6149;52.418;13.668;2022-07-12T02:58:49;3.47;;;2.30;;
12171;SDS011;6149;52.418;13.668;2022-07-12T03:01:16;2.77;;;2.10;;
12171;SDS011;6149;52.418;13.668;2022-07-12T03:03:43;2.93;;;2.20;;
12171;SDS011;6149;52.418;13.668;2022-07-12T03:06:11;2.90;;;2.20;;
12171;SDS011;6149;52.418;13.668;2022-07-12T03:08:38;2.43;;;2.10;;
12171;SDS011;6149;52.418;13.668;2022-07-12T03:11:04;3.87;;;2.33;;
12171;SDS011;6149;52.418;13.668;2022-07-12T03:13:31;2.73;;;2.40;;
12171;SDS011;6149;52.418;13.668;2022-07-12T03:15:57;2.63;;;1.90;;
12171;SDS011;6149;52.418;13.668;2022-07-12T03:18:24;3.50;;;2.17;;
12171;SDS011;6149;52.418;13.668;2022-07-12T03:20:51;2.30;;;2.10;;
12171;SDS011;6149;52.418;13.668;2022-07-12T03:23:19;3.17;;;2.20;;
12171;SDS011;6149;52.418;13.668;2022-07-12T03:25:46;4.53;;;2.20;;
12171;SDS011;6149;52.418;13.668;2022-07-12T03:28:12;3.50;;;2.17;;
12171;SDS011;6149;52.418;13.668;2022-07-12T03:30:39;2.70;;;2.13;;
12171;SDS011;6149;52.418;13.668;2022-07-12T03:33:05;3.37;;;2.20;;
12171;SDS011;6149;52.418;13.668;2022-07-12T03:35:35;5.87;;;2.73;;
12171;SDS011;6149;52.418;13.668;2022-07-12T03:38:02;4.07;;;2.17;;
12171;SDS011;6149;52.418;13.668;2022-07-12T03:40:31;3.00;;;2.30;;
12171;SDS011;6149;52.418;13.668;2022-07-12T03:42:59;3.50;;;2.50;;
12171;SDS011;6149;52.418;13.668;2022-07-12T03:45:26;4.60;;;2.50;;
12171;SDS011;6149;52.418;13.668;2022-07-12T03:47:53;2.43;;;2.07;;
12171;SDS011;6149;52.418;13.668;2022-07-12T03:50:20;2.67;;;2.43;;
12171;SDS011;6149;52.418;13.668;2022-07-12T03:52:47;4.33;;;2.40;;
12171;SDS011;6149;52.418;13.668;2022-07-12T03:55:13;2.73;;;1.93;;
12171;SDS011;6149;52.418;13.668;2022-07-12T03:57:41;4.40;;;2.93;;
12171;SDS011;6149;52.418;13.668;2022-07-12T04:00:09;2.63;;;2.23;;
12171;SDS011;6149;52.418;13.668;2022-07-12T04:02:37;2.80;;;2.50;;
12171;SDS011;6149;52.418;13.668;2022-07-12T04:05:06;3.10;;;2.37;;
12171;SDS011;6149;52.418;13.668;2022-07-12T04:07:34;3.20;;;2.60;;
12171;SDS011;6149;52.418;13.668;2022-07-12T04:10:01;3.73;;;2.47;;
12171;SDS011;6149;52.418;13.668;2022-07-12T04:12:29;4.20;;;2.20;;
12171;SDS011;6149;52.418;13.668;2022-07-12T04:14:57;3.67;;;2.60;;
12171;SDS011;6149;52.418;13.668;2022-07-12T04:17:23;2.50;;;2.30;;
12171;SDS011;6149;52.418;13.668;2022-07-12T04:19:50;2.57;;;2.30;;
12171;SDS011;6149;52.418;13.668;2022-07-12T04:22:16;3.97;;;2.73;;
12171;SDS011;6149;52.418;13.668;2022-07-12T04:24:43;3.33;;;2.60;;
12171;SDS011;6149;52.418;13.668;2022-07-12T04:27:10;3.40;;;2.40;;
12171;SDS011;6149;52.418;13.668;2022-07-12T04:29:37;4.73;;;2.77;;
12171;SDS011;6149;52.418;13.668;2022-07-12T04:32:05;3.87;;;2.60;;
12171;SDS011;6149;52.418;13.668;2022-07-12T04:34:33;6.47;;;3.27;;
12171;SDS011;6149;52.418;13.668;2022-07-12T04:37:00;3.40;;;2.37;;
12171;SDS011;6149;52.418;13.668;2022-07-12T04:39:26;5.43;;;3.00;;
12171;SDS011;6149;52.418;13.668;2022-07-12T04:41:53;3.87;;;2.30;;
12171;SDS011;6149;52.418;13.668;2022-07-12T04:44:19;4.03;;;2.83;;
12171;SDS011;6149;52.418;13.668;2022-07-12T04:46:46;3.97;;;2.63;;
12171;SDS011;6149;52.418;13.668;2022-07-12T04:49:14;2.90;;;2.40;;
12171;SDS011;6149;52.418;13.668;2022-07-12T04:51:41;4.23;;;2.50;;
12171;SDS011;6149;52.418;13.668;2022-07-12T04:54:07;4.63;;;1.97;;
12171;SDS011;6149;52.418;13.668;2022-07-12T04:56:34;3.63;;;2.30;;
12171;SDS011;6149;52.418;13.668;2022-07-12T04:59:01;3.93;;;2.20;;
12171;SDS011;6149;52.418;13.668;2022-07-12T05:01:27;3.70;;;1.97;;
12171;SDS011;6149;52.418;13.668;2022-07-12T05:03:54;3.43;;;1.80;;
12171;SDS011;6149;52.418;13.668;2022-07-12T05:06:22;3.90;;;1.93;;
12171;SDS011;6149;52.418;13.668;2022-07-12T05:08:49;4.73;;;1.83;;
12171;SDS011;6149;52.418;13.668;2022-07-12T05:11:16;3.43;;;1.80;;
12171;SDS011;6149;52.418;13.668;2022-07-12T05:13:42;4.60;;;1.40;;
12171;SDS011;6149;52.418;13.668;2022-07-12T05:16:09;3.17;;;1.77;;
12171;SDS011;6149;52.418;13.668;2022-07-12T05:18:36;3.97;;;1.73;;
12171;SDS011;6149;52.418;13.668;2022-07-12T05:21:03;3.23;;;1.87;;
12171;SDS011;6149;52.418;13.668;2022-07-12T05:23:31;2.30;;;1.60;;
12171;SDS011;6149;52.418;13.668;2022-07-12T05:25:57;3.33;;;1.70;;
12171;SDS011;6149;52.418;13.668;2022-07-12T05:28:24;3.37;;;1.50;;
12171;SDS011;6149;52.418;13.668;2022-07-12T05:30:50;3.23;;;1.43;;
12171;SDS011;6149;52.418;13.668;2022-07-12T05:33:17;4.40;;;1.60;;
12171;SDS011;6149;52.418;13.668;2022-07-12T05:35:43;3.40;;;1.63;;
12171;SDS011;6149;52.418;13.668;2022-07-12T05:38:10;2.53;;;1.50;;
12171;SDS011;6149;52.418;13.668;2022-07-12T05:40:38;3.47;;;1.57;;
12171;SDS011;6149;52.418;13.668;2022-07-12T05:43:05;4.20;;;1.60;;
12171;SDS011;6149;52.418;13.668;2022-07-12T05:45:31;3.03;;;1.37;;
12171;SDS011;6149;52.418;13.668;2022-07-12T05:47:58;2.00;;;1.10;;
12171;SDS011;6149;52.418;13.668;2022-07-12T05:50:24;1.97;;;1.40;;
12171;SDS011;6149;52.418;13.668;2022-07-12T05:52:51;2.90;;;1.20;;
12171;SDS011;6149;52.418;13.668;2022-07-12T05:55:35;2.23;;;1.27;;
12171;SDS011;6149;52.418;13.668;2022-07-12T05:58:03;2.10;;;1.30;;
12171;SDS011;6149;52.418;13.668;2022-07-12T06:00:30;5.20;;;1.23;;
12171;SDS011;6149;52.418;13.668;2022-07-12T06:02:58;2.77;;;1.10;;
12171;SDS011;6149;52.418;13.668;2022-07-12T06:05:24;5.20;;;1.43;;
12171;SDS011;6149;52.418;13.668;2022-07-12T06:07:51;2.77;;;1.07;;
12171;SDS011;6149;52.418;13.668;2022-07-12T06:10:17;2.50;;;1.03;;
12171;SDS011;6149;52.418;13.668;2022-07-12T06:12:44;1.50;;;1.00;;
12171;SDS011;6149;52.418;13.668;2022-07-12T06:15:12;4.17;;;1.10;;
12171;SDS011;6149;52.418;13.668;2022-07-12T06:17:38;2.53;;;0.90;;
12171;SDS011;6149;52.418;13.668;2022-07-12T06:20:05;2.20;;;0.80;;
12171;SDS011;6149;52.418;13.668;2022-07-12T06:22:33;2.83;;;1.00;;
12171;SDS011;6149;52.418;13.668;2022-07-12T06:24:59;1.73;;;0.80;;
12171;SDS011;6149;52.418;13.668;2022-07-12T06:27:26;1.80;;;0.90;;
12171;SDS011;6149;52.418;13.668;2022-07-12T06:29:53;1.97;;;0.87;;
12171;SDS011;6149;52.418;13.668;2022-07-12T06:32:20;1.90;;;0.90;;
12171;SDS011;6149;52.418;13.668;2022-07-12T06:34:48;1.47;;;0.80;;
12171;SDS011;6149;52.418;13.668;2022-07-12T06:37:15;1.93;;;0.93;;
12171;SDS011;6149;52.418;13.668;2022-07-12T06:39:41;1.40;;;0.93;;
12171;SDS011;6149;52.418;13.668;2022-07-12T06:42:09;1.83;;;1.00;;
12171;SDS011;6149;52.418;13.668;2022-07-12T06:44:37;3.73;;;1.00;;
12171;SDS011;6149;52.418;13.668;2022-07-12T06:47:03;2.20;;;1.10;;
12171;SDS011;6149;52.418;13.668;2022-07-12T06:49:32;2.07;;;1.00;;
12171;SDS011;6149;52.418;13.668;2022-07-12T06:51:58;2.27;;;1.03;;
12171;SDS011;6149;52.418;13.668;2022-07-12T06:54:25;3.17;;;0.90;;
12171;SDS011;6149;52.418;13.668;2022-07-12T06:56:52;1.77;;;1.10;;
12171;SDS011;6149;52.418;13.668;2022-07-12T06:59:21;2.37;;;1.10;;
12171;SDS011;6149;52.418;13.668;2022-07-12T07:01:48;2.40;;;0.97;;
12171;SDS011;6149;52.418;13.668;2022-07-12T07:04:15;3.77;;;1.20;;
12171;SDS011;6149;52.418;13.668;2022-07-12T07:06:43;1.60;;;0.93;;
12171;SDS011;6149;52.418;13.668;2022-07-12T07:09:09;3.60;;;1.40;;
12171;SDS011;6149;52.418;13.668;2022-07-12T07:11:36;3.23;;;0.90;;
12171;SDS011;6149;52.418;13.668;2022-07-12T07:14:02;2.10;;;1.10;;
12171;SDS011;6149;52.418;13.668;2022-07-12T07:16:29;3.87;;;1.00;;
12171;SDS011;6149;52.418;13.668;2022-07-12T07:18:56;2.10;;;0.97;;
12171;SDS011;6149;52.418;13.668;2022-07-12T07:21:22;2.77;;;1.10;;
12171;SDS011;6149;52.418;13.668;2022-07-12T07:23:51;3.10;;;1.00;;
12171;SDS011;6149;52.418;13.668;2022-07-12T07:26:17;1.90;;;0.83;;
12171;SDS011;6149;52.418;13.668;2022-07-12T07:28:44;2.00;;;0.87;;
12171;SDS011;6149;52.418;13.668;2022-07-12T07:31:28;1.97;;;0.93;;
12171;SDS011;6149;52.418;13.668;2022-07-12T07:33:56;2.37;;;1.20;;
12171;SDS011;6149;52.418;13.668;2022-07-12T07:36:22;2.00;;;0.90;;
12171;SDS011;6149;52.418;13.668;2022-07-12T07:38:50;3.37;;;0.93;;
12171;SDS011;6149;52.418;13.668;2022-07-12T07:41:17;3.37;;;1.07;;
12171;SDS011;6149;52.418;13.668;2022-07-12T07:43:43;4.30;;;1.10;;
12171;SDS011;6149;52.418;13.668;2022-07-12T07:46:10;2.03;;;1.07;;
12171;SDS011;6149;52.418;13.668;2022-07-12T07:48:37;2.63;;;0.93;;
12171;SDS011;6149;52.418;13.668;2022-07-12T07:51:03;3.20;;;1.07;;
12171;SDS011;6149;52.418;13.668;2022-07-12T07:53:30;3.37;;;0.90;;
12171;SDS011;6149;52.418;13.668;2022-07-12T07:55:59;2.80;;;1.00;;
12171;SDS011;6149;52.418;13.668;2022-07-12T07:58:26;2.50;;;0.90;;
12171;SDS011;6149;52.418;13.668;2022-07-12T08:00:53;1.67;;;0.93;;
12171;SDS011;6149;52.418;13.668;2022-07-12T08:03:20;2.40;;;0.93;;
12171;SDS011;6149;52.418;13.668;2022-07-12T08:05:47;1.90;;;0.90;;
12171;SDS011;6149;52.418;13.668;2022-07-12T08:08:15;6.43;;;1.03;;
12171;SDS011;6149;52.418;13.668;2022-07-12T08:10:42;3.47;;;1.00;;
12171;SDS011;6149;52.418;13.668;2022-07-12T08:13:10;1.97;;;0.80;;
12171;SDS011;6149;52.418;13.668;2022-07-12T08:15:37;1.83;;;0.87;;
12171;SDS011;6149;52.418;13.668;2022-07-12T08:18:03;1.57;;;0.90;;
12171;SDS011;6149;52.418;13.668;2022-07-12T08:20:30;1.53;;;1.00;;
12171;SDS011;6149;52.418;13.668;2022-07-12T08:22:57;2.83;;;1.10;;
12171;SDS011;6149;52.418;13.668;2022-07-12T08:25:24;2.53;;;0.90;;
12171;SDS011;6149;52.418;13.668;2022-07-12T08:27:50;2.60;;;0.83;;
12171;SDS011;6149;52.418;13.668;2022-07-12T08:30:19;1.70;;;1.00;;
12171;SDS011;6149;52.418;13.668;2022-07-12T08:32:46;1.37;;;0.80;;
12171;SDS011;6149;52.418;13.668;2022-07-12T08:35:13;2.37;;;1.20;;
12171;SDS011;6149;52.418;13.668;2022-07-12T08:37:40;2.80;;;1.03;;
12171;SDS011;6149;52.418;13.668;2022-07-12T08:40:07;0.93;;;0.63;;
12171;SDS011;6149;52.418;13.668;2022-07-12T08:42:34;1.70;;;1.00;;
12171;SDS011;6149;52.418;13.668;2022-07-12T08:45:02;2.77;;;1.10;;
12171;SDS011;6149;52.418;13.668;2022-07-12T08:47:31;3.23;;;1.20;;
12171;SDS011;6149;52.418;13.668;2022-07-12T08:50:13;2.83;;;0.97;;
12171;SDS011;6149;52.418;13.668;2022-07-12T08:52:43;1.10;;;0.80;;
12171;SDS011;6149;52.418;13.668;2022-07-12T08:55:18;2.20;;;0.80;;
12171;SDS011;6149;52.418;13.668;2022-07-12T08:57:49;1.90;;;0.93;;
12171;SDS011;6149;52.418;13.668;2022-07-12T09:00:20;2.37;;;1.00;;
12171;SDS011;6149;52.418;13.668;2022-07-12T09:02:49;1.67;;;0.93;;
12171;SDS011;6149;52.418;13.668;2022-07-12T09:05:18;2.17;;;1.00;;
12171;SDS011;6149;52.418;13.668;2022-07-12T09:07:46;2.27;;;1.10;;
12171;SDS011;6149;52.418;13.668;2022-07-12T09:10:13;3.13;;;1.07;;
12171;SDS011;6149;52.418;13.668;2022-07-12T09:12:41;2.77;;;1.40;;
12171;SDS011;6149;52.418;13.668;2022-07-12T09:15:16;3.50;;;1.10;;
12171;SDS011;6149;52.418;13.668;2022-07-12T09:17:56;1.73;;;1.00;;
12171;SDS011;6149;52.418;13.668;2022-07-12T09:20:25;1.47;;;0.83;;
12171;SDS011;6149;52.418;13.668;2022-07-12T09:22:56;1.93;;;0.80;;
12171;SDS011;6149;52.418;13.668;2022-07-12T09:25:25;2.07;;;0.80;;
12171;SDS011;6149;52.418;13.668;2022-07-12T09:27:53;3.50;;;1.00;;
12171;SDS011;6149;52.418;13.668;2022-07-12T09:30:23;1.23;;;0.83;;
12171;SDS011;6149;52.418;13.668;2022-07-12T09:32:53;2.27;;;0.90;;
12171;SDS011;6149;52.418;13.668;2022-07-12T09:35:42;2.20;;;1.03;;
12171;SDS011;6149;52.418;13.668;2022-07-12T09:38:27;1.40;;;0.90;;
12171;SDS011;6149;52.418;13.668;2022-07-12T09:40:54;0.97;;;0.70;;
12171;SDS011;6149;52.418;13.668;2022-07-12T09:43:22;1.60;;;0.90;;
12171;SDS011;6149;52.418;13.668;2022-07-12T09:45:49;5.13;;;0.90;;
12171;SDS011;6149;52.418;13.668;2022-07-12T09:48:18;0.70;;;0.70;;
12171;SDS011;6149;52.418;13.668;2022-07-12T09:50:48;2.57;;;1.00;;
12171;SDS011;6149;52.418;13.668;2022-07-12T09:53:19;1.63;;;0.90;;
12171;SDS011;6149;52.418;13.668;2022-07-12T09:55:49;1.23;;;0.80;;
12171;SDS011;6149;52.418;13.668;2022-07-12T09:58:19;1.60;;;0.80;;
12171;SDS011;6149;52.418;13.668;2022-07-12T10:00:51;2.20;;;0.80;;
12171;SDS011;6149;52.418;13.668;2022-07-12T10:03:21;3.37;;;1.10;;
12171;SDS011;6149;52.418;13.668;2022-07-12T10:05:50;2.30;;;0.90;;
12171;SDS011;6149;52.418;13.668;2022-07-12T10:08:18;2.50;;;0.97;;
12171;SDS011;6149;52.418;13.668;2022-07-12T10:10:46;1.27;;;0.80;;
12171;SDS011;6149;52.418;13.668;2022-07-12T10:13:14;2.30;;;0.97;;
12171;SDS011;6149;52.418;13.668;2022-07-12T10:15:42;1.40;;;0.87;;
12171;SDS011;6149;52.418;13.668;2022-07-12T10:18:14;2.87;;;1.10;;
12171;SDS011;6149;52.418;13.668;2022-07-12T10:20:44;3.73;;;1.10;;
12171;SDS011;6149;52.418;13.668;2022-07-12T10:23:30;2.93;;;1.10;;
12171;SDS011;6149;52.418;13.668;2022-07-12T10:26:00;2.17;;;0.90;;
12171;SDS011;6149;52.418;13.668;2022-07-12T10:28:56;2.50;;;0.97;;
12171;SDS011;6149;52.418;13.668;2022-07-12T10:31:27;1.93;;;0.83;;
12171;SDS011;6149;52.418;13.668;2022-07-12T10:34:10;1.13;;;0.90;;
12171;SDS011;6149;52.418;13.668;2022-07-12T10:39:37;2.00;;;1.00;;
12171;SDS011;6149;52.418;13.668;2022-07-12T10:42:12;1.70;;;0.93;;
12171;SDS011;6149;52.418;13.668;2022-07-12T10:44:42;3.70;;;1.23;;
12171;SDS011;6149;52.418;13.668;2022-07-12T10:47:11;1.33;;;0.90;;
12171;SDS011;6149;52.418;13.668;2022-07-12T10:49:47;2.40;;;1.00;;
12171;SDS011;6149;52.418;13.668;2022-07-12T10:52:26;1.37;;;1.00;;
12171;SDS011;6149;52.418;13.668;2022-07-12T10:57:46;3.37;;;1.27;;
12171;SDS011;6149;52.418;13.668;2022-07-12T11:00:19;1.67;;;1.20;;
12171;SDS011;6149;52.418;13.668;2022-07-12T11:02:47;1.87;;;1.17;;
12171;SDS011;6149;52.418;13.668;2022-07-12T11:05:14;1.43;;;1.00;;
12171;SDS011;6149;52.418;13.668;2022-07-12T11:07:42;1.60;;;1.00;;
12171;SDS011;6149;52.418;13.668;2022-07-12T11:10:11;2.17;;;0.90;;
12171;SDS011;6149;52.418;13.668;2022-07-12T11:12:39;3.87;;;1.07;;
12171;SDS011;6149;52.418;13.668;2022-07-12T11:15:06;4.10;;;0.97;;
12171;SDS011;6149;52.418;13.668;2022-07-12T11:17:34;1.80;;;0.93;;
12171;SDS011;6149;52.418;13.668;2022-07-12T11:20:04;2.57;;;1.00;;
12171;SDS011;6149;52.418;13.668;2022-07-12T11:22:34;1.83;;;0.87;;
12171;SDS011;6149;52.418;13.668;2022-07-12T11:25:04;2.80;;;0.87;;
12171;SDS011;6149;52.418;13.668;2022-07-12T11:27:34;1.53;;;0.87;;
12171;SDS011;6149;52.418;13.668;2022-07-12T11:30:01;3.63;;;1.00;;
12171;SDS011;6149;52.418;13.668;2022-07-12T11:32:34;1.63;;;1.00;;
12171;SDS011;6149;52.418;13.668;2022-07-12T11:35:03;1.00;;;0.80;;
12171;SDS011;6149;52.418;13.668;2022-07-12T11:37:46;0.90;;;0.70;;
12171;SDS011;6149;52.418;13.668;2022-07-12T11:40:20;1.57;;;0.90;;
12171;SDS011;6149;52.418;13.668;2022-07-12T11:42:52;2.43;;;1.10;;
12171;SDS011;6149;52.418;13.668;2022-07-12T11:45:20;2.03;;;0.90;;
12171;SDS011;6149;52.418;13.668;2022-07-12T11:47:47;1.97;;;1.07;;
12171;SDS011;6149;52.418;13.668;2022-07-12T11:50:16;1.33;;;1.00;;
12171;SDS011;6149;52.418;13.668;2022-07-12T11:52:43;2.13;;;0.83;;
12171;SDS011;6149;52.418;13.668;2022-07-12T11:55:10;2.57;;;0.90;;
12171;SDS011;6149;52.418;13.668;2022-07-12T11:57:40;1.73;;;1.00;;
12171;SDS011;6149;52.418;13.668;2022-07-12T12:00:16;1.53;;;1.00;;
12171;SDS011;6149;52.418;13.668;2022-07-12T12:02:44;3.20;;;1.00;;
12171;SDS011;6149;52.418;13.668;2022-07-12T12:05:12;2.73;;;1.00;;
12171;SDS011;6149;52.418;13.668;2022-07-12T12:07:42;1.67;;;0.80;;
12171;SDS011;6149;52.418;13.668;2022-07-12T12:10:10;2.10;;;1.00;;
12171;SDS011;6149;52.418;13.668;2022-07-12T12:12:40;2.40;;;0.90;;
12171;SDS011;6149;52.418;13.668;2022-07-12T12:15:11;4.17;;;0.93;;
12171;SDS011;6149;52.418;13.668;2022-07-12T12:17:43;1.70;;;1.30;;
12171;SDS011;6149;52.418;13.668;2022-07-12T12:20:12;1.30;;;0.90;;
12171;SDS011;6149;52.418;13.668;2022-07-12T12:22:42;1.80;;;0.80;;
12171;SDS011;6149;52.418;13.668;2022-07-12T12:25:09;1.33;;;0.90;;
12171;SDS011;6149;52.418;13.668;2022-07-12T12:27:44;2.27;;;1.40;;
12171;SDS011;6149;52.418;13.668;2022-07-12T12:30:12;1.70;;;1.30;;
12171;SDS011;6149;52.418;13.668;2022-07-12T12:32:47;2.20;;;1.00;;
12171;SDS011;6149;52.418;13.668;2022-07-12T12:35:20;1.10;;;0.80;;
12171;SDS011;6149;52.418;13.668;2022-07-12T12:37:49;3.70;;;1.20;;
12171;SDS011;6149;52.418;13.668;2022-07-12T12:40:20;1.60;;;1.13;;
12171;SDS011;6149;52.418;13.668;2022-07-12T12:42:50;1.33;;;1.00;;
12171;SDS011;6149;52.418;13.668;2022-07-12T12:45:21;2.07;;;1.10;;
12171;SDS011;6149;52.418;13.668;2022-07-12T12:47:53;3.80;;;1.20;;
12171;SDS011;6149;52.418;13.668;2022-07-12T12:50:41;3.03;;;1.07;;
12171;SDS011;6149;52.418;13.668;2022-07-12T12:53:10;2.67;;;1.00;;
12171;SDS011;6149;52.418;13.668;2022-07-12T12:55:39;2.07;;;1.03;;
12171;SDS011;6149;52.418;13.668;2022-07-12T12:58:07;2.23;;;1.03;;
12171;SDS011;6149;52.418;13.668;2022-07-12T13:00:35;0.90;;;0.90;;
12171;SDS011;6149;52.418;13.668;2022-07-12T13:03:04;2.30;;;1.07;;
12171;SDS011;6149;52.418;13.668;2022-07-12T13:05:31;2.30;;;1.00;;
12171;SDS011;6149;52.418;13.668;2022-07-12T13:07:58;2.57;;;0.97;;
12171;SDS011;6149;52.418;13.668;2022-07-12T13:10:26;0.77;;;0.70;;
12171;SDS011;6149;52.418;13.668;2022-07-12T13:13:02;3.50;;;0.90;;
12171;SDS011;6149;52.418;13.668;2022-07-12T13:15:31;2.37;;;0.90;;
12171;SDS011;6149;52.418;13.668;2022-07-12T13:17:58;0.93;;;0.70;;
12171;SDS011;6149;52.418;13.668;2022-07-12T13:20:26;1.47;;;1.00;;
12171;SDS011;6149;52.418;13.668;2022-07-12T13:23:01;2.00;;;1.10;;
12171;SDS011;6149;52.418;13.668;2022-07-12T13:25:28;3.20;;;1.10;;
12171;SDS011;6149;52.418;13.668;2022-07-12T13:27:56;2.10;;;1.07;;
12171;SDS011;6149;52.418;13.668;2022-07-12T13:30:22;2.80;;;0.93;;
12171;SDS011;6149;52.418;13.668;2022-07-12T13:32:50;1.87;;;1.00;;
12171;SDS011;6149;52.418;13.668;2022-07-12T13:35:16;1.07;;;0.93;;
12171;SDS011;6149;52.418;13.668;2022-07-12T13:37:43;2.27;;;0.93;;
12171;SDS011;6149;52.418;13.668;2022-07-12T13:40:10;1.63;;;0.90;;
12171;SDS011;6149;52.418;13.668;2022-07-12T13:42:38;1.70;;;0.97;;
12171;SDS011;6149;52.418;13.668;2022-07-12T13:45:06;2.10;;;0.93;;
12171;SDS011;6149;52.418;13.668;2022-07-12T13:47:35;1.47;;;0.90;;
12171;SDS011;6149;52.418;13.668;2022-07-12T13:50:05;2.10;;;0.90;;
12171;SDS011;6149;52.418;13.668;2022-07-12T13:52:32;2.80;;;0.93;;
12171;SDS011;6149;52.418;13.668;2022-07-12T13:54:59;3.00;;;1.10;;
12171;SDS011;6149;52.418;13.668;2022-07-12T13:57:26;2.23;;;1.00;;
12171;SDS011;6149;52.418;13.668;2022-07-12T13:59:53;1.40;;;0.90;;
12171;SDS011;6149;52.418;13.668;2022-07-12T14:02:19;1.10;;;1.00;;
12171;SDS011;6149;52.418;13.668;2022-07-12T14:04:46;1.80;;;0.90;;
12171;SDS011;6149;52.418;13.668;2022-07-12T14:07:14;2.03;;;1.00;;
12171;SDS011;6149;52.418;13.668;2022-07-12T14:09:40;2.60;;;0.90;;
12171;SDS011;6149;52.418;13.668;2022-07-12T14:12:07;1.00;;;0.80;;
12171;SDS011;6149;52.418;13.668;2022-07-12T14:14:34;1.33;;;0.80;;
12171;SDS011;6149;52.418;13.668;2022-07-12T14:17:19;2.63;;;1.13;;
12171;SDS011;6149;52.418;13.668;2022-07-12T14:19:46;1.87;;;1.03;;
12171;SDS011;6149;52.418;13.668;2022-07-12T14:22:14;1.33;;;0.80;;
12171;SDS011;6149;52.418;13.668;2022-07-12T14:24:40;3.53;;;1.20;;
12171;SDS011;6149;52.418;13.668;2022-07-12T14:27:07;1.27;;;1.00;;
12171;SDS011;6149;52.418;13.668;2022-07-12T14:29:34;2.50;;;1.10;;
12171;SDS011;6149;52.418;13.668;2022-07-12T14:32:01;2.60;;;0.90;;
12171;SDS011;6149;52.418;13.668;2022-07-12T14:34:27;2.13;;;1.07;;
12171;SDS011;6149;52.418;13.668;2022-07-12T14:36:54;2.90;;;1.00;;
12171;SDS011;6149;52.418;13.668;2022-07-12T14:39:22;1.73;;;1.00;;
12171;SDS011;6149;52.418;13.668;2022-07-12T14:41:49;1.63;;;0.90;;
12171;SDS011;6149;52.418;13.668;2022-07-12T14:44:16;3.50;;;1.47;;
12171;SDS011;6149;52.418;13.668;2022-07-12T14:46:43;1.93;;;1.00;;
12171;SDS011;6149;52.418;13.668;2022-07-12T14:49:10;1.63;;;1.10;;
12171;SDS011;6149;52.418;13.668;2022-07-12T14:51:37;2.00;;;1.00;;
12171;SDS011;6149;52.418;13.668;2022-07-12T14:54:04;1.80;;;0.83;;
12171;SDS011;6149;52.418;13.668;2022-07-12T14:56:32;1.10;;;0.90;;
12171;SDS011;6149;52.418;13.668;2022-07-12T14:58:58;4.13;;;1.03;;
12171;SDS011;6149;52.418;13.668;2022-07-12T15:01:25;1.00;;;0.90;;